createdAt,value
2023-04-28T00:01:44.673Z,45.85
2023-04-28T00:06:46.334Z,48.30
2023-04-28T00:11:47.845Z,46.85
2023-04-28T00:16:49.637Z,48.88
2023-04-28T00:21:51.188Z,47.83
2023-04-28T00:26:52.660Z,44.65
2023-04-28T00:31:54.126Z,42.80
2023-04-28T00:36:55.797Z,54.05
2023-04-28T00:41:57.787Z,56.75
2023-04-28T00:46:59.748Z,52.80
2023-04-28T00:52:05.265Z,49.17
2023-04-28T00:57:07.995Z,45.28
2023-04-28T01:02:09.462Z,41.30
2023-04-28T01:07:11.725Z,41.85
2023-04-28T01:12:13.342Z,36.60
2023-04-28T01:17:14.878Z,43.20
2023-04-28T01:22:16.700Z,38.38
2023-04-28T01:27:18.258Z,42.42
2023-04-28T01:32:19.700Z,40.75
2023-04-28T01:37:21.160Z,36.75
2023-04-28T01:42:22.653Z,34.58
2023-04-28T01:47:24.145Z,39.10
2023-04-28T01:52:27.327Z,34.05
2023-04-28T01:57:29.190Z,34.50
2023-04-28T02:02:31.001Z,31.55
2023-04-28T02:07:32.596Z,29.70
2023-04-28T02:12:34.054Z,33.00
2023-04-28T02:17:35.729Z,30.30
2023-04-28T02:22:37.198Z,33.10
2023-04-28T02:27:38.670Z,32.67
2023-04-28T02:32:40.150Z,27.85
2023-04-28T02:37:41.673Z,28.15
2023-04-28T02:42:43.124Z,28.40
2023-04-28T02:47:44.707Z,30.73
2023-04-28T02:52:48.339Z,31.92
2023-04-28T02:57:50.605Z,32.35
2023-04-28T03:02:52.109Z,31.48
2023-04-28T03:07:54.022Z,32.00
2023-04-28T03:12:55.439Z,29.38
2023-04-28T03:17:56.902Z,28.95
2023-04-28T03:22:58.489Z,34.08
2023-04-28T03:27:59.931Z,33.22
2023-04-28T03:33:01.470Z,31.30
2023-04-28T03:38:03.011Z,35.90
2023-04-28T03:43:05.010Z,35.88
2023-04-28T03:48:07.405Z,38.00
2023-04-28T03:53:08.949Z,35.58
2023-04-28T03:58:10.694Z,35.28
2023-04-28T04:03:12.332Z,40.22
2023-04-28T04:08:13.911Z,41.72
2023-04-28T04:13:15.508Z,38.00
2023-04-28T04:18:16.991Z,35.50
2023-04-28T04:23:18.391Z,39.92
2023-04-28T04:28:19.822Z,34.50
2023-04-28T04:33:21.264Z,38.17
2023-04-28T04:38:22.670Z,37.47
2023-04-28T04:43:24.157Z,40.35
2023-04-28T04:48:25.646Z,38.88
2023-04-28T04:53:27.194Z,36.58
2023-04-28T04:58:29.160Z,35.45
2023-04-28T05:03:30.828Z,36.22
2023-04-28T05:08:32.346Z,35.30
2023-04-28T05:13:33.764Z,35.50
2023-04-28T05:18:35.228Z,40.70
2023-04-28T05:23:36.639Z,39.22
2023-04-28T05:28:40.652Z,34.10
2023-04-28T05:33:42.193Z,36.53
2023-04-28T05:38:44.318Z,37.83
2023-04-28T05:43:46.425Z,37.72
2023-04-28T05:48:47.899Z,35.30
2023-04-28T05:53:49.343Z,33.85
2023-04-28T05:58:51.349Z,41.72
2023-04-28T06:03:54.013Z,45.08
2023-04-28T06:08:55.762Z,36.03
2023-04-28T06:13:57.267Z,43.15
2023-04-28T06:18:58.731Z,38.75
2023-04-28T06:24:00.859Z,35.83
2023-04-28T06:29:02.584Z,35.72
2023-04-28T06:34:03.999Z,34.28
2023-04-28T06:39:05.748Z,34.67
2023-04-28T06:44:07.221Z,30.98
2023-04-28T06:49:08.678Z,33.13
2023-04-28T06:54:10.103Z,35.42
2023-04-28T06:59:11.511Z,39.22
2023-04-28T07:04:13.084Z,36.20
2023-04-28T07:09:15.928Z,35.95
2023-04-28T07:14:17.616Z,36.78
2023-04-28T07:19:19.287Z,33.30
2023-04-28T07:24:20.741Z,29.77
2023-04-28T07:29:22.171Z,34.20
2023-04-28T07:34:23.620Z,27.63
2023-04-28T07:39:25.172Z,28.25
2023-04-28T07:44:26.747Z,30.13
2023-04-28T07:49:32.035Z,28.60
2023-04-28T07:54:35.110Z,25.63
2023-04-28T07:59:38.365Z,22.77
2023-04-28T08:04:39.961Z,24.30
2023-04-28T08:09:44.114Z,19.52
2023-04-28T08:14:45.527Z,16.35
2023-04-28T08:19:47.574Z,18.45
2023-04-28T08:24:48.989Z,15.80
2023-04-28T08:29:50.457Z,17.75
2023-04-28T08:34:51.863Z,18.75
2023-04-28T08:40:02.170Z,14.98
2023-04-28T08:45:05.549Z,16.45
2023-04-28T08:50:08.683Z,16.02
2023-04-28T08:55:12.837Z,12.02
2023-04-28T09:00:15.088Z,13.48
2023-04-28T09:05:16.833Z,11.05
2023-04-28T09:10:23.542Z,18.30
2023-04-28T09:15:41.001Z,12.20
2023-04-28T09:20:42.563Z,14.95
2023-04-28T09:25:59.767Z,13.43
2023-04-28T09:31:01.811Z,13.52
2023-04-28T09:36:03.441Z,15.10
2023-04-28T09:41:05.105Z,13.32
2023-04-28T09:46:06.600Z,16.13
2023-04-28T09:51:09.107Z,12.10
2023-04-28T09:56:11.850Z,12.20
2023-04-28T10:01:14.632Z,12.48
2023-04-28T10:06:16.242Z,11.75
2023-04-28T10:11:17.945Z,13.88
2023-04-28T10:16:19.838Z,13.80
2023-04-28T10:21:23.577Z,8.48
2023-04-28T10:26:56.549Z,11.93
2023-04-28T10:32:17.539Z,12.10
2023-04-28T10:37:19.500Z,12.82
2023-04-28T10:42:52.950Z,10.35
2023-04-28T10:48:04.439Z,11.45
2023-04-28T10:53:06.404Z,10.32
2023-04-28T10:58:28.058Z,8.55
2023-04-28T11:03:52.377Z,9.93
2023-04-28T11:08:57.460Z,10.95
2023-04-28T11:14:17.153Z,10.07
2023-04-28T11:19:20.174Z,11.77
2023-04-28T11:24:22.976Z,8.65
2023-04-28T11:29:41.575Z,10.88
2023-04-28T11:34:43.069Z,9.05
2023-04-28T11:39:45.386Z,9.25
2023-04-28T11:44:54.489Z,9.50
2023-04-28T11:49:57.229Z,9.52
2023-04-28T11:55:02.325Z,9.20
2023-04-28T12:00:14.955Z,10.07
2023-04-28T12:05:16.972Z,11.60
2023-04-28T12:10:19.880Z,7.15
2023-04-28T12:15:22.722Z,8.02
2023-04-28T12:20:35.408Z,7.35
2023-04-28T12:25:44.475Z,8.23
2023-04-28T12:30:45.964Z,7.53
2023-04-28T12:35:49.028Z,8.40
2023-04-28T12:40:50.578Z,6.68
2023-04-28T12:45:56.519Z,8.68
2023-04-28T12:50:58.148Z,7.28
2023-04-28T12:55:59.584Z,6.30
2023-04-28T13:01:02.072Z,8.20
2023-04-28T13:06:04.409Z,5.00
2023-04-28T13:11:16.084Z,6.95
2023-04-28T13:16:29.235Z,6.67
2023-04-28T13:21:30.735Z,6.75
2023-04-28T13:26:32.264Z,6.55
2023-04-28T13:31:34.452Z,5.03
2023-04-28T13:36:36.287Z,5.20
2023-04-28T13:41:37.984Z,6.85
2023-04-28T13:46:39.506Z,5.70
2023-04-28T13:51:41.164Z,4.07
2023-04-28T13:56:42.614Z,4.40
2023-04-28T14:01:44.264Z,5.22
2023-04-28T14:06:45.961Z,6.97
2023-04-28T14:11:47.551Z,5.72
2023-04-28T14:16:49.056Z,7.03
2023-04-28T14:21:50.470Z,4.85
2023-04-28T14:26:52.767Z,6.47
2023-04-28T14:31:54.172Z,5.30
2023-04-28T14:36:55.687Z,5.38
2023-04-28T14:41:57.200Z,6.40
2023-04-28T14:46:59.703Z,6.10
2023-04-28T14:52:01.590Z,4.40
2023-04-28T14:57:03.118Z,4.70
2023-04-28T15:02:04.953Z,5.28
2023-04-28T15:07:09.226Z,5.88
2023-04-28T15:12:10.755Z,5.38
2023-04-28T15:17:12.288Z,5.13
2023-04-28T15:22:14.008Z,6.95
2023-04-28T15:27:15.622Z,5.32
2023-04-28T15:32:17.473Z,5.55
2023-04-28T15:37:37.153Z,6.78
2023-04-28T15:42:39.205Z,3.80
2023-04-28T15:47:41.317Z,6.97
2023-04-28T15:52:46.451Z,9.10
2023-04-28T15:57:48.480Z,7.20
2023-04-28T16:02:50.321Z,6.18
2023-04-28T16:07:52.784Z,9.75
2023-04-28T16:12:54.190Z,7.57
2023-04-28T16:17:56.903Z,6.57
2023-04-28T16:22:58.399Z,7.07
2023-04-28T16:27:59.810Z,6.47
2023-04-28T16:33:01.403Z,6.43
2023-04-28T16:38:02.969Z,8.73
2023-04-28T16:43:04.419Z,10.82
2023-04-28T16:48:06.341Z,7.53
2023-04-28T16:53:08.164Z,8.75
2023-04-28T16:58:09.571Z,6.03
2023-04-28T17:03:11.638Z,7.80
2023-04-28T17:08:13.880Z,7.40
2023-04-28T17:13:15.652Z,9.13
2023-04-28T17:18:17.087Z,8.40
2023-04-28T17:23:19.220Z,10.32
2023-04-28T17:28:20.713Z,9.48
2023-04-28T17:33:22.113Z,8.35
2023-04-28T17:38:23.826Z,9.75
2023-04-28T17:43:25.777Z,6.32
2023-04-28T17:48:27.252Z,6.32
2023-04-28T17:53:28.660Z,8.18
2023-04-28T17:58:32.342Z,8.10
2023-04-28T18:03:35.515Z,11.20
2023-04-28T18:08:37.217Z,10.85
2023-04-28T18:13:38.701Z,8.13
2023-04-28T18:18:40.707Z,11.02
2023-04-28T18:23:42.280Z,8.18
2023-04-28T18:28:48.105Z,10.07
2023-04-28T18:33:49.677Z,8.27
2023-04-28T18:38:51.116Z,6.90
2023-04-28T18:43:52.536Z,12.27
2023-04-28T18:48:54.598Z,11.45
2023-04-28T18:53:56.099Z,9.77
2023-04-28T18:58:57.681Z,9.60
2023-04-28T19:03:59.229Z,10.52
2023-04-28T19:09:01.499Z,7.45
2023-04-28T19:14:02.979Z,10.27
2023-04-28T19:19:04.539Z,10.13
2023-04-28T19:24:06.715Z,11.82
2023-04-28T19:29:08.238Z,11.77
2023-04-28T19:34:09.666Z,19.60
2023-04-28T19:39:11.083Z,22.23
2023-04-28T19:44:12.670Z,18.95
2023-04-28T19:49:14.153Z,23.08
2023-04-28T19:54:16.725Z,21.75
2023-04-28T19:59:18.300Z,22.33
2023-04-28T20:04:19.809Z,21.60
2023-04-28T20:09:21.378Z,23.48
2023-04-28T20:14:23.098Z,28.27
2023-04-28T20:19:24.937Z,24.90
2023-04-28T20:24:26.422Z,21.05
2023-04-28T20:29:34.399Z,19.73
2023-04-28T20:34:36.396Z,20.13
2023-04-28T20:39:37.816Z,18.13
2023-04-28T20:44:40.931Z,26.85
2023-04-28T20:49:42.362Z,20.80
2023-04-28T20:54:43.914Z,14.93
2023-04-28T20:59:45.908Z,17.60
2023-04-28T21:04:47.652Z,23.30
2023-04-28T21:09:49.307Z,16.27
2023-04-28T21:14:50.802Z,18.13
2023-04-28T21:19:55.197Z,17.80
2023-04-28T21:24:57.646Z,16.08
2023-04-28T21:29:59.189Z,14.15
2023-04-28T21:35:00.641Z,13.57
2023-04-28T21:40:02.549Z,13.85
2023-04-28T21:45:04.666Z,15.50
2023-04-28T21:50:06.894Z,11.10
2023-04-28T21:55:08.810Z,11.43
2023-04-28T22:00:12.605Z,14.43
2023-04-28T22:05:14.044Z,13.52
2023-04-28T22:10:17.622Z,13.93
2023-04-28T22:15:19.220Z,11.70
2023-04-28T22:20:20.673Z,16.02
2023-04-28T22:25:22.224Z,18.25
2023-04-28T22:30:25.988Z,16.17
2023-04-28T22:35:28.140Z,16.48
2023-04-28T22:40:29.557Z,20.45
2023-04-28T22:45:31.107Z,18.40
2023-04-28T22:50:32.616Z,20.73
2023-04-28T22:55:34.075Z,16.48
2023-04-28T23:00:35.845Z,15.27
2023-04-28T23:05:38.382Z,17.77
2023-04-28T23:10:39.794Z,17.75
2023-04-28T23:15:41.766Z,14.13
2023-04-28T23:20:43.206Z,16.73
2023-04-28T23:25:44.644Z,21.65
2023-04-28T23:30:46.055Z,17.88
2023-04-28T23:35:47.460Z,17.02
2023-04-28T23:40:48.951Z,12.95
2023-04-28T23:45:50.422Z,17.15
2023-04-28T23:50:51.889Z,15.02
2023-04-28T23:55:53.331Z,18.65
